sensor_id;sensor_type;location;lat;lon;timestamp;P1;durP1;ratioP1;P2;durP2;ratioP2
43801;SDS011;29429;51.074;13.764;2022-11-04T00:00:46;11.75;;;7.43;;
43801;SDS011;29429;51.074;13.764;2022-11-04T00:03:13;13.68;;;7.43;;
43801;SDS011;29429;51.074;13.764;2022-11-04T00:05:40;13.63;;;7.65;;
43801;SDS011;29429;51.074;13.764;2022-11-04T00:08:07;14.88;;;7.30;;
43801;SDS011;29429;51.074;13.764;2022-11-04T00:10:53;13.77;;;7.43;;
43801;SDS011;29429;51.074;13.764;2022-11-04T00:13:42;14.05;;;8.70;;
43801;SDS011;29429;51.074;13.764;2022-11-04T00:16:10;14.98;;;7.95;;
43801;SDS011;29429;51.074;13.764;2022-11-04T00:18:58;13.35;;;7.90;;
43801;SDS011;29429;51.074;13.764;2022-11-04T00:21:26;11.88;;;7.38;;
43801;SDS011;29429;51.074;13.764;2022-11-04T00:24:13;16.95;;;8.63;;
43801;SDS011;29429;51.074;13.764;2022-11-04T00:26:58;13.52;;;7.65;;
43801;SDS011;29429;51.074;13.764;2022-11-04T00:29:44;15.07;;;8.48;;
43801;SDS011;29429;51.074;13.764;2022-11-04T00:32:11;11.55;;;8.40;;
43801;SDS011;29429;51.074;13.764;2022-11-04T00:34:56;11.63;;;8.07;;
43801;SDS011;29429;51.074;13.764;2022-11-04T00:37:23;12.60;;;8.63;;
43801;SDS011;29429;51.074;13.764;2022-11-04T00:39:50;18.15;;;10.77;;
43801;SDS011;29429;51.074;13.764;2022-11-04T00:42:16;16.23;;;10.15;;
43801;SDS011;29429;51.074;13.764;2022-11-04T00:44:43;15.77;;;9.82;;
43801;SDS011;29429;51.074;13.764;2022-11-04T00:47:10;16.67;;;10.52;;
43801;SDS011;29429;51.074;13.764;2022-11-04T00:49:37;20.40;;;11.13;;
43801;SDS011;29429;51.074;13.764;2022-11-04T00:52:04;19.27;;;10.93;;
43801;SDS011;29429;51.074;13.764;2022-11-04T00:54:31;17.98;;;11.05;;
43801;SDS011;29429;51.074;13.764;2022-11-04T00:56:58;18.98;;;11.27;;
43801;SDS011;29429;51.074;13.764;2022-11-04T00:59:25;18.20;;;11.60;;
43801;SDS011;29429;51.074;13.764;2022-11-04T01:01:52;20.65;;;12.13;;
43801;SDS011;29429;51.074;13.764;2022-11-04T01:04:19;18.70;;;12.02;;
43801;SDS011;29429;51.074;13.764;2022-11-04T01:06:46;19.58;;;11.35;;
43801;SDS011;29429;51.074;13.764;2022-11-04T01:09:13;22.23;;;12.50;;
43801;SDS011;29429;51.074;13.764;2022-11-04T01:11:40;19.77;;;12.23;;
43801;SDS011;29429;51.074;13.764;2022-11-04T01:14:07;19.02;;;12.45;;
43801;SDS011;29429;51.074;13.764;2022-11-04T01:16:34;20.90;;;12.20;;
43801;SDS011;29429;51.074;13.764;2022-11-04T01:19:02;18.58;;;12.48;;
43801;SDS011;29429;51.074;13.764;2022-11-04T01:21:28;25.30;;;13.70;;
43801;SDS011;29429;51.074;13.764;2022-11-04T01:23:56;24.45;;;13.88;;
43801;SDS011;29429;51.074;13.764;2022-11-04T01:26:25;25.23;;;13.63;;
43801;SDS011;29429;51.074;13.764;2022-11-04T01:28:55;24.38;;;15.18;;
43801;SDS011;29429;51.074;13.764;2022-11-04T01:31:24;26.33;;;16.50;;
43801;SDS011;29429;51.074;13.764;2022-11-04T01:33:54;24.77;;;15.45;;
43801;SDS011;29429;51.074;13.764;2022-11-04T01:36:24;27.60;;;15.75;;
43801;SDS011;29429;51.074;13.764;2022-11-04T01:38:55;28.73;;;15.80;;
43801;SDS011;29429;51.074;13.764;2022-11-04T01:41:23;27.33;;;17.08;;
43801;SDS011;29429;51.074;13.764;2022-11-04T01:43:57;25.45;;;16.13;;
43801;SDS011;29429;51.074;13.764;2022-11-04T01:46:41;25.92;;;17.45;;
43801;SDS011;29429;51.074;13.764;2022-11-04T01:52:03;25.20;;;16.33;;
43801;SDS011;29429;51.074;13.764;2022-11-04T01:54:38;26.30;;;17.25;;
43801;SDS011;29429;51.074;13.764;2022-11-04T01:57:08;28.33;;;18.42;;
43801;SDS011;29429;51.074;13.764;2022-11-04T01:59:44;30.08;;;18.38;;
43801;SDS011;29429;51.074;13.764;2022-11-04T02:02:12;25.92;;;17.88;;
43801;SDS011;29429;51.074;13.764;2022-11-04T02:04:40;29.45;;;18.20;;
43801;SDS011;29429;51.074;13.764;2022-11-04T02:07:09;27.80;;;17.58;;
43801;SDS011;29429;51.074;13.764;2022-11-04T02:09:37;29.52;;;18.60;;
43801;SDS011;29429;51.074;13.764;2022-11-04T02:12:05;31.35;;;19.63;;
43801;SDS011;29429;51.074;13.764;2022-11-04T02:14:51;31.50;;;19.52;;
43801;SDS011;29429;51.074;13.764;2022-11-04T02:23:15;27.33;;;18.30;;
43801;SDS011;29429;51.074;13.764;2022-11-04T02:29:25;33.60;;;18.65;;
43801;SDS011;29429;51.074;13.764;2022-11-04T02:44:25;30.30;;;19.40;;
43801;SDS011;29429;51.074;13.764;2022-11-04T02:47:06;30.23;;;18.55;;
43801;SDS011;29429;51.074;13.764;2022-11-04T02:49:45;27.13;;;18.50;;
43801;SDS011;29429;51.074;13.764;2022-11-04T02:55:51;31.05;;;20.25;;
43801;SDS011;29429;51.074;13.764;2022-11-04T02:58:31;32.35;;;18.80;;
43801;SDS011;29429;51.074;13.764;2022-11-04T03:01:06;34.33;;;20.55;;
43801;SDS011;29429;51.074;13.764;2022-11-04T03:03:40;33.85;;;21.05;;
43801;SDS011;29429;51.074;13.764;2022-11-04T03:06:13;31.58;;;19.92;;
43801;SDS011;29429;51.074;13.764;2022-11-04T03:08:47;29.23;;;20.08;;
43801;SDS011;29429;51.074;13.764;2022-11-04T03:11:19;35.97;;;20.67;;
43801;SDS011;29429;51.074;13.764;2022-11-04T03:16:58;28.92;;;18.48;;
43801;SDS011;29429;51.074;13.764;2022-11-04T03:22:19;30.77;;;19.90;;
43801;SDS011;29429;51.074;13.764;2022-11-04T03:24:50;30.55;;;19.48;;
43801;SDS011;29429;51.074;13.764;2022-11-04T03:30:06;30.25;;;20.23;;
43801;SDS011;29429;51.074;13.764;2022-11-04T03:35:27;26.67;;;19.05;;
43801;SDS011;29429;51.074;13.764;2022-11-04T03:37:54;27.15;;;17.92;;
43801;SDS011;29429;51.074;13.764;2022-11-04T03:40:23;29.05;;;19.75;;
43801;SDS011;29429;51.074;13.764;2022-11-04T03:42:54;24.58;;;17.02;;
43801;SDS011;29429;51.074;13.764;2022-11-04T03:45:25;28.30;;;17.90;;
43801;SDS011;29429;51.074;13.764;2022-11-04T03:47:52;26.17;;;17.63;;
43801;SDS011;29429;51.074;13.764;2022-11-04T03:50:24;26.98;;;18.13;;
43801;SDS011;29429;51.074;13.764;2022-11-04T03:52:56;28.58;;;18.83;;
43801;SDS011;29429;51.074;13.764;2022-11-04T03:55:50;29.17;;;20.13;;
43801;SDS011;29429;51.074;13.764;2022-11-04T04:01:39;28.98;;;20.42;;
43801;SDS011;29429;51.074;13.764;2022-11-04T04:04:25;27.45;;;20.00;;
43801;SDS011;29429;51.074;13.764;2022-11-04T04:07:09;25.85;;;19.27;;
43801;SDS011;29429;51.074;13.764;2022-11-04T04:09:47;29.35;;;18.92;;
43801;SDS011;29429;51.074;13.764;2022-11-04T04:13:10;31.88;;;20.58;;
43801;SDS011;29429;51.074;13.764;2022-11-04T04:16:01;25.42;;;17.52;;
43801;SDS011;29429;51.074;13.764;2022-11-04T04:18:54;29.38;;;19.95;;
43801;SDS011;29429;51.074;13.764;2022-11-04T04:21:58;26.23;;;19.17;;
43801;SDS011;29429;51.074;13.764;2022-11-04T04:24:35;30.98;;;19.05;;
43801;SDS011;29429;51.074;13.764;2022-11-04T04:27:25;30.50;;;20.88;;
43801;SDS011;29429;51.074;13.764;2022-11-04T04:30:06;26.73;;;19.58;;
43801;SDS011;29429;51.074;13.764;2022-11-04T04:32:38;32.15;;;21.50;;
43801;SDS011;29429;51.074;13.764;2022-11-04T04:35:15;27.83;;;19.10;;
43801;SDS011;29429;51.074;13.764;2022-11-04T04:38:03;23.38;;;16.52;;
43801;SDS011;29429;51.074;13.764;2022-11-04T04:40:58;31.35;;;19.85;;
43801;SDS011;29429;51.074;13.764;2022-11-04T04:43:56;23.92;;;16.80;;
43801;SDS011;29429;51.074;13.764;2022-11-04T04:46:43;25.02;;;17.05;;
43801;SDS011;29429;51.074;13.764;2022-11-04T04:49:14;25.63;;;17.80;;
43801;SDS011;29429;51.074;13.764;2022-11-04T04:51:42;30.88;;;21.10;;
43801;SDS011;29429;51.074;13.764;2022-11-04T04:54:12;27.23;;;19.48;;
43801;SDS011;29429;51.074;13.764;2022-11-04T04:56:39;30.05;;;19.45;;
43801;SDS011;29429;51.074;13.764;2022-11-04T04:59:06;32.70;;;21.00;;
43801;SDS011;29429;51.074;13.764;2022-11-04T05:01:33;27.15;;;17.90;;
43801;SDS011;29429;51.074;13.764;2022-11-04T05:04:00;27.60;;;19.92;;
43801;SDS011;29429;51.074;13.764;2022-11-04T05:06:27;25.13;;;17.92;;
43801;SDS011;29429;51.074;13.764;2022-11-04T05:08:54;30.60;;;20.70;;
43801;SDS011;29429;51.074;13.764;2022-11-04T05:11:21;30.80;;;22.25;;
43801;SDS011;29429;51.074;13.764;2022-11-04T05:13:54;27.00;;;18.90;;
43801;SDS011;29429;51.074;13.764;2022-11-04T05:16:22;29.52;;;20.98;;
43801;SDS011;29429;51.074;13.764;2022-11-04T05:18:52;36.33;;;24.20;;
43801;SDS011;29429;51.074;13.764;2022-11-04T05:21:19;39.72;;;26.23;;
43801;SDS011;29429;51.074;13.764;2022-11-04T05:23:46;41.97;;;27.42;;
43801;SDS011;29429;51.074;13.764;2022-11-04T05:26:13;40.90;;;28.10;;
43801;SDS011;29429;51.074;13.764;2022-11-04T05:28:40;50.72;;;28.33;;
43801;SDS011;29429;51.074;13.764;2022-11-04T05:31:07;41.25;;;26.58;;
43801;SDS011;29429;51.074;13.764;2022-11-04T05:33:34;43.92;;;29.23;;
43801;SDS011;29429;51.074;13.764;2022-11-04T05:38:37;48.35;;;32.50;;
43801;SDS011;29429;51.074;13.764;2022-11-04T05:41:05;59.80;;;35.50;;
43801;SDS011;29429;51.074;13.764;2022-11-04T05:43:34;56.63;;;35.42;;
43801;SDS011;29429;51.074;13.764;2022-11-04T05:46:01;58.70;;;36.50;;
43801;SDS011;29429;51.074;13.764;2022-11-04T05:48:29;57.00;;;34.22;;
43801;SDS011;29429;51.074;13.764;2022-11-04T05:50:56;46.40;;;32.33;;
43801;SDS011;29429;51.074;13.764;2022-11-04T05:53:23;56.50;;;36.25;;
43801;SDS011;29429;51.074;13.764;2022-11-04T05:55:49;58.67;;;37.50;;
43801;SDS011;29429;51.074;13.764;2022-11-04T05:58:16;50.53;;;34.13;;
43801;SDS011;29429;51.074;13.764;2022-11-04T06:00:43;55.13;;;35.42;;
43801;SDS011;29429;51.074;13.764;2022-11-04T06:03:10;53.75;;;34.65;;
43801;SDS011;29429;51.074;13.764;2022-11-04T06:05:41;53.22;;;33.70;;
43801;SDS011;29429;51.074;13.764;2022-11-04T06:08:08;61.28;;;37.78;;
43801;SDS011;29429;51.074;13.764;2022-11-04T06:10:39;65.13;;;40.35;;
43801;SDS011;29429;51.074;13.764;2022-11-04T06:13:19;50.08;;;33.00;;
43801;SDS011;29429;51.074;13.764;2022-11-04T06:16:00;72.45;;;42.20;;
43801;SDS011;29429;51.074;13.764;2022-11-04T06:18:41;63.80;;;39.30;;
43801;SDS011;29429;51.074;13.764;2022-11-04T06:21:39;67.38;;;39.40;;
43801;SDS011;29429;51.074;13.764;2022-11-04T06:28:07;63.45;;;37.28;;
43801;SDS011;29429;51.074;13.764;2022-11-04T06:33:30;67.72;;;42.13;;
43801;SDS011;29429;51.074;13.764;2022-11-04T06:36:03;72.25;;;42.92;;
43801;SDS011;29429;51.074;13.764;2022-11-04T06:38:33;74.05;;;42.53;;
43801;SDS011;29429;51.074;13.764;2022-11-04T06:41:06;72.70;;;44.03;;
43801;SDS011;29429;51.074;13.764;2022-11-04T06:43:39;75.80;;;45.05;;
43801;SDS011;29429;51.074;13.764;2022-11-04T06:46:22;80.78;;;44.78;;
43801;SDS011;29429;51.074;13.764;2022-11-04T06:48:57;70.80;;;42.67;;
43801;SDS011;29429;51.074;13.764;2022-11-04T06:51:24;67.15;;;39.33;;
43801;SDS011;29429;51.074;13.764;2022-11-04T06:53:52;62.78;;;39.70;;
43801;SDS011;29429;51.074;13.764;2022-11-04T06:56:19;104.80;;;65.95;;
43801;SDS011;29429;51.074;13.764;2022-11-04T06:58:46;67.28;;;40.85;;
43801;SDS011;29429;51.074;13.764;2022-11-04T07:01:19;63.45;;;39.15;;
43801;SDS011;29429;51.074;13.764;2022-11-04T07:03:49;67.20;;;41.50;;
43801;SDS011;29429;51.074;13.764;2022-11-04T07:06:18;63.55;;;36.67;;
43801;SDS011;29429;51.074;13.764;2022-11-04T07:08:46;56.85;;;34.13;;
43801;SDS011;29429;51.074;13.764;2022-11-04T07:11:15;50.45;;;32.65;;
43801;SDS011;29429;51.074;13.764;2022-11-04T07:13:44;44.13;;;28.73;;
43801;SDS011;29429;51.074;13.764;2022-11-04T07:16:12;42.30;;;27.23;;
43801;SDS011;29429;51.074;13.764;2022-11-04T07:18:41;41.65;;;26.23;;
43801;SDS011;29429;51.074;13.764;2022-11-04T07:21:08;39.75;;;25.60;;
43801;SDS011;29429;51.074;13.764;2022-11-04T07:23:36;33.42;;;24.15;;
43801;SDS011;29429;51.074;13.764;2022-11-04T07:26:05;32.90;;;21.48;;
43801;SDS011;29429;51.074;13.764;2022-11-04T07:28:33;32.90;;;21.52;;
43801;SDS011;29429;51.074;13.764;2022-11-04T07:31:01;30.35;;;18.25;;
43801;SDS011;29429;51.074;13.764;2022-11-04T07:33:31;27.83;;;16.92;;
43801;SDS011;29429;51.074;13.764;2022-11-04T07:36:02;26.90;;;17.85;;
43801;SDS011;29429;51.074;13.764;2022-11-04T07:38:35;23.17;;;16.88;;
43801;SDS011;29429;51.074;13.764;2022-11-04T07:41:03;25.48;;;16.98;;
43801;SDS011;29429;51.074;13.764;2022-11-04T07:43:30;23.05;;;14.10;;
43801;SDS011;29429;51.074;13.764;2022-11-04T07:46:01;22.13;;;14.15;;
43801;SDS011;29429;51.074;13.764;2022-11-04T07:48:37;19.80;;;13.65;;
43801;SDS011;29429;51.074;13.764;2022-11-04T07:51:06;21.63;;;13.85;;
43801;SDS011;29429;51.074;13.764;2022-11-04T07:53:36;22.95;;;13.85;;
43801;SDS011;29429;51.074;13.764;2022-11-04T07:56:12;20.58;;;13.43;;
43801;SDS011;29429;51.074;13.764;2022-11-04T07:58:40;20.50;;;13.40;;
43801;SDS011;29429;51.074;13.764;2022-11-04T08:01:09;18.83;;;12.48;;
43801;SDS011;29429;51.074;13.764;2022-11-04T08:03:40;20.70;;;13.68;;
43801;SDS011;29429;51.074;13.764;2022-11-04T08:06:08;20.20;;;12.93;;
43801;SDS011;29429;51.074;13.764;2022-11-04T08:08:38;20.05;;;12.85;;
43801;SDS011;29429;51.074;13.764;2022-11-04T08:11:06;20.35;;;11.93;;
43801;SDS011;29429;51.074;13.764;2022-11-04T08:13:43;18.27;;;11.52;;
43801;SDS011;29429;51.074;13.764;2022-11-04T08:16:12;17.02;;;12.02;;
43801;SDS011;29429;51.074;13.764;2022-11-04T08:18:45;20.42;;;12.95;;
43801;SDS011;29429;51.074;13.764;2022-11-04T08:21:15;16.02;;;11.88;;
43801;SDS011;29429;51.074;13.764;2022-11-04T08:23:45;14.52;;;9.68;;
43801;SDS011;29429;51.074;13.764;2022-11-04T08:26:14;19.40;;;11.90;;
43801;SDS011;29429;51.074;13.764;2022-11-04T08:28:44;16.60;;;11.38;;
43801;SDS011;29429;51.074;13.764;2022-11-04T08:31:18;16.50;;;10.88;;
43801;SDS011;29429;51.074;13.764;2022-11-04T08:33:56;13.55;;;9.93;;
43801;SDS011;29429;51.074;13.764;2022-11-04T08:36:25;13.15;;;9.23;;
43801;SDS011;29429;51.074;13.764;2022-11-04T08:38:59;15.80;;;9.85;;
43801;SDS011;29429;51.074;13.764;2022-11-04T08:41:34;15.27;;;9.75;;
43801;SDS011;29429;51.074;13.764;2022-11-04T08:44:03;12.75;;;9.23;;
43801;SDS011;29429;51.074;13.764;2022-11-04T08:46:35;14.30;;;9.57;;
43801;SDS011;29429;51.074;13.764;2022-11-04T08:49:05;20.50;;;11.13;;
43801;SDS011;29429;51.074;13.764;2022-11-04T08:51:47;16.88;;;10.13;;
43801;SDS011;29429;51.074;13.764;2022-11-04T08:54:22;12.93;;;8.50;;
43801;SDS011;29429;51.074;13.764;2022-11-04T08:56:53;8.65;;;6.38;;
43801;SDS011;29429;51.074;13.764;2022-11-04T08:59:23;11.57;;;7.72;;
43801;SDS011;29429;51.074;13.764;2022-11-04T09:01:50;13.45;;;9.23;;
43801;SDS011;29429;51.074;13.764;2022-11-04T09:04:17;14.38;;;9.95;;
43801;SDS011;29429;51.074;13.764;2022-11-04T09:06:45;15.77;;;9.85;;
43801;SDS011;29429;51.074;13.764;2022-11-04T09:09:14;12.57;;;7.47;;
43801;SDS011;29429;51.074;13.764;2022-11-04T09:11:43;11.18;;;7.07;;
43801;SDS011;29429;51.074;13.764;2022-11-04T09:14:11;7.63;;;5.18;;
43801;SDS011;29429;51.074;13.764;2022-11-04T09:16:39;11.20;;;7.38;;
43801;SDS011;29429;51.074;13.764;2022-11-04T09:19:12;11.35;;;7.90;;
43801;SDS011;29429;51.074;13.764;2022-11-04T09:21:39;11.80;;;8.35;;
43801;SDS011;29429;51.074;13.764;2022-11-04T09:24:06;10.35;;;7.22;;
43801;SDS011;29429;51.074;13.764;2022-11-04T09:26:34;11.88;;;8.00;;
43801;SDS011;29429;51.074;13.764;2022-11-04T09:29:01;12.95;;;6.78;;
43801;SDS011;29429;51.074;13.764;2022-11-04T09:31:29;8.93;;;6.15;;
43801;SDS011;29429;51.074;13.764;2022-11-04T09:33:56;10.05;;;6.18;;
43801;SDS011;29429;51.074;13.764;2022-11-04T09:36:23;9.93;;;6.07;;
43801;SDS011;29429;51.074;13.764;2022-11-04T09:38:51;10.35;;;5.93;;
43801;SDS011;29429;51.074;13.764;2022-11-04T09:44:00;7.47;;;5.72;;
43801;SDS011;29429;51.074;13.764;2022-11-04T09:46:42;12.10;;;6.85;;
43801;SDS011;29429;51.074;13.764;2022-11-04T09:49:14;11.20;;;7.03;;
43801;SDS011;29429;51.074;13.764;2022-11-04T09:51:42;8.07;;;6.30;;
43801;SDS011;29429;51.074;13.764;2022-11-04T09:54:25;9.32;;;6.05;;
43801;SDS011;29429;51.074;13.764;2022-11-04T09:57:15;8.63;;;6.05;;
43801;SDS011;29429;51.074;13.764;2022-11-04T09:59:44;13.20;;;7.30;;
43801;SDS011;29429;51.074;13.764;2022-11-04T10:08:01;8.18;;;6.35;;
43801;SDS011;29429;51.074;13.764;2022-11-04T10:11:02;10.23;;;7.07;;
43801;SDS011;29429;51.074;13.764;2022-11-04T10:20:00;12.32;;;7.05;;
43801;SDS011;29429;51.074;13.764;2022-11-04T10:23:01;10.20;;;7.10;;
43801;SDS011;29429;51.074;13.764;2022-11-04T10:29:03;12.50;;;7.72;;
43801;SDS011;29429;51.074;13.764;2022-11-04T10:31:36;10.98;;;7.28;;
43801;SDS011;29429;51.074;13.764;2022-11-04T10:34:14;11.20;;;8.18;;
43801;SDS011;29429;51.074;13.764;2022-11-04T10:37:03;12.93;;;8.63;;
43801;SDS011;29429;51.074;13.764;2022-11-04T10:39:36;10.15;;;7.03;;
43801;SDS011;29429;51.074;13.764;2022-11-04T10:42:13;12.27;;;7.18;;
43801;SDS011;29429;51.074;13.764;2022-11-04T10:44:47;9.00;;;6.45;;
43801;SDS011;29429;51.074;13.764;2022-11-04T10:50:20;8.20;;;6.20;;
43801;SDS011;29429;51.074;13.764;2022-11-04T10:53:48;13.02;;;7.32;;
43801;SDS011;29429;51.074;13.764;2022-11-04T10:56:04;10.80;;;6.60;;
43801;SDS011;29429;51.074;13.764;2022-11-04T10:58:56;10.45;;;5.88;;
43801;SDS011;29429;51.074;13.764;2022-11-04T11:01:52;8.65;;;5.40;;
43801;SDS011;29429;51.074;13.764;2022-11-04T11:04:29;7.05;;;4.80;;
43801;SDS011;29429;51.074;13.764;2022-11-04T11:07:01;7.25;;;4.78;;
43801;SDS011;29429;51.074;13.764;2022-11-04T11:12:20;8.40;;;5.05;;
43801;SDS011;29429;51.074;13.764;2022-11-04T11:15:17;11.50;;;5.70;;
43801;SDS011;29429;51.074;13.764;2022-11-04T11:18:11;9.20;;;4.80;;
43801;SDS011;29429;51.074;13.764;2022-11-04T11:20:47;8.93;;;4.35;;
43801;SDS011;29429;51.074;13.764;2022-11-04T11:23:42;8.30;;;4.80;;
43801;SDS011;29429;51.074;13.764;2022-11-04T11:26:17;7.00;;;5.00;;
43801;SDS011;29429;51.074;13.764;2022-11-04T11:28:55;8.80;;;4.90;;
43801;SDS011;29429;51.074;13.764;2022-11-04T11:31:37;7.72;;;4.93;;
43801;SDS011;29429;51.074;13.764;2022-11-04T11:34:06;6.03;;;4.93;;
43801;SDS011;29429;51.074;13.764;2022-11-04T11:36:52;6.97;;;4.78;;
43801;SDS011;29429;51.074;13.764;2022-11-04T11:39:22;9.43;;;5.10;;
43801;SDS011;29429;51.074;13.764;2022-11-04T11:42:00;7.40;;;5.03;;
43801;SDS011;29429;51.074;13.764;2022-11-04T11:47:05;9.65;;;5.32;;
43801;SDS011;29429;51.074;13.764;2022-11-04T11:49:43;7.45;;;5.30;;
43801;SDS011;29429;51.074;13.764;2022-11-04T11:55:03;9.68;;;5.45;;
43801;SDS011;29429;51.074;13.764;2022-11-04T12:01:28;7.47;;;5.82;;
43801;SDS011;29429;51.074;13.764;2022-11-04T12:04:04;8.85;;;5.88;;
43801;SDS011;29429;51.074;13.764;2022-11-04T12:10:37;10.10;;;5.40;;
43801;SDS011;29429;51.074;13.764;2022-11-04T12:13:27;9.88;;;5.40;;
43801;SDS011;29429;51.074;13.764;2022-11-04T12:21:53;7.43;;;5.45;;
43801;SDS011;29429;51.074;13.764;2022-11-04T12:30:23;5.63;;;4.03;;
43801;SDS011;29429;51.074;13.764;2022-11-04T12:41:54;6.95;;;4.57;;
43801;SDS011;29429;51.074;13.764;2022-11-04T12:47:34;7.93;;;4.53;;
43801;SDS011;29429;51.074;13.764;2022-11-04T12:50:16;8.20;;;5.30;;
43801;SDS011;29429;51.074;13.764;2022-11-04T13:04:20;10.30;;;7.35;;
43801;SDS011;29429;51.074;13.764;2022-11-04T13:06:57;11.63;;;6.53;;
43801;SDS011;29429;51.074;13.764;2022-11-04T13:09:38;9.93;;;6.72;;
43801;SDS011;29429;51.074;13.764;2022-11-04T13:12:16;13.88;;;7.38;;
43801;SDS011;29429;51.074;13.764;2022-11-04T13:14:50;10.93;;;7.25;;
43801;SDS011;29429;51.074;13.764;2022-11-04T13:17:38;14.18;;;7.78;;
43801;SDS011;29429;51.074;13.764;2022-11-04T13:22:40;17.33;;;9.32;;
43801;SDS011;29429;51.074;13.764;2022-11-04T13:28:00;15.02;;;8.98;;
43801;SDS011;29429;51.074;13.764;2022-11-04T13:38:57;12.43;;;7.90;;
43801;SDS011;29429;51.074;13.764;2022-11-04T13:44:37;12.88;;;8.13;;
43801;SDS011;29429;51.074;13.764;2022-11-04T13:47:22;14.77;;;9.40;;
43801;SDS011;29429;51.074;13.764;2022-11-04T13:49:57;12.77;;;8.40;;
43801;SDS011;29429;51.074;13.764;2022-11-04T13:52:26;12.40;;;8.57;;
43801;SDS011;29429;51.074;13.764;2022-11-04T13:54:58;13.63;;;7.80;;
43801;SDS011;29429;51.074;13.764;2022-11-04T13:57:32;12.45;;;6.72;;
43801;SDS011;29429;51.074;13.764;2022-11-04T14:00:22;9.57;;;6.53;;
43801;SDS011;29429;51.074;13.764;2022-11-04T14:02:57;11.95;;;7.00;;
43801;SDS011;29429;51.074;13.764;2022-11-04T14:08:30;12.05;;;6.35;;
43801;SDS011;29429;51.074;13.764;2022-11-04T14:10:59;12.90;;;6.85;;
43801;SDS011;29429;51.074;13.764;2022-11-04T14:18:33;11.43;;;7.10;;
43801;SDS011;29429;51.074;13.764;2022-11-04T14:21:12;11.27;;;7.13;;
43801;SDS011;29429;51.074;13.764;2022-11-04T14:23:55;11.40;;;7.40;;
43801;SDS011;29429;51.074;13.764;2022-11-04T14:26:40;14.13;;;8.27;;
43801;SDS011;29429;51.074;13.764;2022-11-04T14:29:18;13.25;;;8.38;;
43801;SDS011;29429;51.074;13.764;2022-11-04T14:31:51;16.92;;;9.73;;
43801;SDS011;29429;51.074;13.764;2022-11-04T14:34:24;14.48;;;9.00;;
43801;SDS011;29429;51.074;13.764;2022-11-04T14:36:55;15.10;;;9.23;;
43801;SDS011;29429;51.074;13.764;2022-11-04T14:39:28;11.45;;;7.40;;
43801;SDS011;29429;51.074;13.764;2022-11-04T14:42:09;18.58;;;9.73;;
43801;SDS011;29429;51.074;13.764;2022-11-04T14:44:43;15.57;;;9.20;;
43801;SDS011;29429;51.074;13.764;2022-11-04T14:47:19;16.08;;;9.02;;
43801;SDS011;29429;51.074;13.764;2022-11-04T14:52:28;18.13;;;11.30;;
43801;SDS011;29429;51.074;13.764;2022-11-04T14:55:04;15.18;;;10.45;;
43801;SDS011;29429;51.074;13.764;2022-11-04T14:57:40;18.20;;;11.63;;
43801;SDS011;29429;51.074;13.764;2022-11-04T15:00:16;21.33;;;11.65;;
43801;SDS011;29429;51.074;13.764;2022-11-04T15:05:38;16.00;;;10.73;;
43801;SDS011;29429;51.074;13.764;2022-11-04T15:48:33;16.02;;;9.70;;
43801;SDS011;29429;51.074;13.764;2022-11-04T16:03:13;18.88;;;10.50;;
43801;SDS011;29429;51.074;13.764;2022-11-04T16:05:58;20.83;;;11.57;;
43801;SDS011;29429;51.074;13.764;2022-11-04T16:08:29;15.82;;;10.95;;
43801;SDS011;29429;51.074;13.764;2022-11-04T16:11:16;19.73;;;12.32;;
43801;SDS011;29429;51.074;13.764;2022-11-04T16:13:52;18.05;;;12.20;;
43801;SDS011;29429;51.074;13.764;2022-11-04T16:16:58;18.85;;;11.10;;
43801;SDS011;29429;51.074;13.764;2022-11-04T16:20:02;20.60;;;12.65;;
43801;SDS011;29429;51.074;13.764;2022-11-04T16:22:58;15.65;;;10.70;;
43801;SDS011;29429;51.074;13.764;2022-11-04T16:25:43;17.50;;;12.57;;
43801;SDS011;29429;51.074;13.764;2022-11-04T16:28:17;19.75;;;12.68;;
43801;SDS011;29429;51.074;13.764;2022-11-04T16:30:59;29.50;;;14.80;;
43801;SDS011;29429;51.074;13.764;2022-11-04T16:33:37;21.05;;;14.05;;
43801;SDS011;29429;51.074;13.764;2022-11-04T16:36:11;23.80;;;15.67;;
43801;SDS011;29429;51.074;13.764;2022-11-04T16:42:52;30.52;;;17.23;;
43801;SDS011;29429;51.074;13.764;2022-11-04T16:45:35;31.30;;;17.70;;
43801;SDS011;29429;51.074;13.764;2022-11-04T16:48:28;19.58;;;13.88;;
43801;SDS011;29429;51.074;13.764;2022-11-04T16:50:55;26.20;;;15.70;;
43801;SDS011;29429;51.074;13.764;2022-11-04T16:53:22;24.42;;;16.50;;
43801;SDS011;29429;51.074;13.764;2022-11-04T16:55:49;21.20;;;15.27;;
43801;SDS011;29429;51.074;13.764;2022-11-04T16:58:19;22.23;;;15.80;;
43801;SDS011;29429;51.074;13.764;2022-11-04T17:00:46;22.95;;;14.65;;
43801;SDS011;29429;51.074;13.764;2022-11-04T17:03:15;25.58;;;15.70;;
43801;SDS011;29429;51.074;13.764;2022-11-04T17:05:49;24.17;;;14.15;;
43801;SDS011;29429;51.074;13.764;2022-11-04T17:08:22;21.40;;;15.60;;
43801;SDS011;29429;51.074;13.764;2022-11-04T17:10:51;24.45;;;15.10;;
43801;SDS011;29429;51.074;13.764;2022-11-04T17:13:19;22.25;;;14.48;;
43801;SDS011;29429;51.074;13.764;2022-11-04T17:15:46;21.13;;;13.85;;
43801;SDS011;29429;51.074;13.764;2022-11-04T17:18:13;20.85;;;15.15;;
43801;SDS011;29429;51.074;13.764;2022-11-04T17:20:43;26.15;;;15.90;;
43801;SDS011;29429;51.074;13.764;2022-11-04T17:23:17;24.30;;;14.40;;
43801;SDS011;29429;51.074;13.764;2022-11-04T17:25:46;20.13;;;13.95;;
43801;SDS011;29429;51.074;13.764;2022-11-04T17:28:14;20.98;;;13.85;;
43801;SDS011;29429;51.074;13.764;2022-11-04T17:30:42;22.38;;;15.02;;
43801;SDS011;29429;51.074;13.764;2022-11-04T17:33:13;21.27;;;14.63;;
43801;SDS011;29429;51.074;13.764;2022-11-04T17:35:43;21.42;;;15.15;;
43801;SDS011;29429;51.074;13.764;2022-11-04T17:38:15;23.38;;;15.90;;
43801;SDS011;29429;51.074;13.764;2022-11-04T17:40:43;23.50;;;15.55;;
43801;SDS011;29429;51.074;13.764;2022-11-04T17:43:29;23.52;;;15.50;;
43801;SDS011;29429;51.074;13.764;2022-11-04T17:46:15;22.45;;;14.25;;
43801;SDS011;29429;51.074;13.764;2022-11-04T17:51:40;24.20;;;14.85;;
43801;SDS011;29429;51.074;13.764;2022-11-04T17:54:10;23.08;;;14.32;;
43801;SDS011;29429;51.074;13.764;2022-11-04T17:56:37;21.20;;;14.65;;
43801;SDS011;29429;51.074;13.764;2022-11-04T17:59:07;19.30;;;13.77;;
43801;SDS011;29429;51.074;13.764;2022-11-04T18:01:37;23.90;;;13.75;;
43801;SDS011;29429;51.074;13.764;2022-11-04T18:04:21;29.77;;;15.43;;
43801;SDS011;29429;51.074;13.764;2022-11-04T18:06:51;24.98;;;14.90;;
43801;SDS011;29429;51.074;13.764;2022-11-04T18:09:30;21.10;;;14.30;;
43801;SDS011;29429;51.074;13.764;2022-11-04T18:11:59;19.35;;;13.35;;
43801;SDS011;29429;51.074;13.764;2022-11-04T18:14:45;19.77;;;13.25;;
43801;SDS011;29429;51.074;13.764;2022-11-04T18:17:12;22.80;;;13.90;;
43801;SDS011;29429;51.074;13.764;2022-11-04T18:19:41;22.00;;;13.02;;
43801;SDS011;29429;51.074;13.764;2022-11-04T18:22:10;20.48;;;13.13;;
43801;SDS011;29429;51.074;13.764;2022-11-04T18:24:38;24.25;;;13.73;;
43801;SDS011;29429;51.074;13.764;2022-11-04T18:27:06;20.27;;;12.10;;